sensor_id;sensor_type;location;lat;lon;timestamp;pressure;altitude;pressure_sealevel;temperature;humidity
14838;BME280;7510;59.296;18.106;2022-12-07T00:01:11;100371.94;;;11.02;37.38
14838;BME280;7510;59.296;18.106;2022-12-07T00:03:39;100375.34;;;10.81;37.60
14838;BME280;7510;59.296;18.106;2022-12-07T00:06:06;100376.25;;;10.42;38.30
14838;BME280;7510;59.296;18.106;2022-12-07T00:08:33;100370.00;;;10.25;38.58
14838;BME280;7510;59.296;18.106;2022-12-07T00:11:03;100371.53;;;10.49;37.92
14838;BME280;7510;59.296;18.106;2022-12-07T00:13:31;100364.31;;;10.38;38.31
14838;BME280;7510;59.296;18.106;2022-12-07T00:16:12;100377.44;;;10.46;38.35
14838;BME280;7510;59.296;18.106;2022-12-07T00:18:38;100377.94;;;10.59;38.29
14838;BME280;7510;59.296;18.106;2022-12-07T00:21:07;100367.66;;;10.89;37.84
14838;BME280;7510;59.296;18.106;2022-12-07T00:23:34;100369.00;;;11.03;37.19
14838;BME280;7510;59.296;18.106;2022-12-07T00:26:10;100367.53;;;11.12;37.24
14838;BME280;7510;59.296;18.106;2022-12-07T00:28:36;100364.16;;;10.44;38.22
14838;BME280;7510;59.296;18.106;2022-12-07T00:31:10;100305.56;;;9.78;39.04
14838;BME280;7510;59.296;18.106;2022-12-07T00:33:36;100346.34;;;10.32;38.14
14838;BME280;7510;59.296;18.106;2022-12-07T00:36:05;100360.84;;;10.26;38.18
14838;BME280;7510;59.296;18.106;2022-12-07T00:38:33;100326.44;;;9.82;38.91
14838;BME280;7510;59.296;18.106;2022-12-07T00:41:10;100328.88;;;9.95;38.66
14838;BME280;7510;59.296;18.106;2022-12-07T00:43:36;100335.75;;;10.14;38.30
14838;BME280;7510;59.296;18.106;2022-12-07T00:46:02;100316.84;;;10.42;37.83
14838;BME280;7510;59.296;18.106;2022-12-07T00:48:28;100343.22;;;10.24;38.26
14838;BME280;7510;59.296;18.106;2022-12-07T00:50:53;100353.78;;;10.25;38.38
14838;BME280;7510;59.296;18.106;2022-12-07T00:53:19;100349.53;;;10.29;38.16
14838;BME280;7510;59.296;18.106;2022-12-07T00:55:45;100350.63;;;9.77;38.79
14838;BME280;7510;59.296;18.106;2022-12-07T00:58:11;100348.72;;;10.29;38.14
14838;BME280;7510;59.296;18.106;2022-12-07T01:00:38;100354.47;;;10.32;37.87
14838;BME280;7510;59.296;18.106;2022-12-07T01:03:05;100342.84;;;10.32;37.83
14838;BME280;7510;59.296;18.106;2022-12-07T01:05:31;100328.63;;;9.23;39.64
14838;BME280;7510;59.296;18.106;2022-12-07T01:07:56;100343.28;;;10.12;38.29
14838;BME280;7510;59.296;18.106;2022-12-07T01:10:22;100349.13;;;10.65;37.28
14838;BME280;7510;59.296;18.106;2022-12-07T01:12:47;100353.31;;;10.28;38.04
14838;BME280;7510;59.296;18.106;2022-12-07T01:15:13;100349.91;;;10.49;37.45
14838;BME280;7510;59.296;18.106;2022-12-07T01:17:38;100334.66;;;10.71;36.99
14838;BME280;7510;59.296;18.106;2022-12-07T01:20:04;100314.94;;;10.87;36.58
14838;BME280;7510;59.296;18.106;2022-12-07T01:22:30;100319.66;;;10.80;36.57
14838;BME280;7510;59.296;18.106;2022-12-07T01:24:56;100331.78;;;11.26;36.12
14838;BME280;7510;59.296;18.106;2022-12-07T01:27:21;100334.06;;;10.85;36.57
14838;BME280;7510;59.296;18.106;2022-12-07T01:29:46;100316.06;;;10.74;36.51
14838;BME280;7510;59.296;18.106;2022-12-07T01:32:12;100347.53;;;10.97;36.34
14838;BME280;7510;59.296;18.106;2022-12-07T01:34:38;100340.72;;;9.94;38.05
14838;BME280;7510;59.296;18.106;2022-12-07T01:37:05;100345.22;;;9.77;38.52
14838;BME280;7510;59.296;18.106;2022-12-07T01:39:30;100339.09;;;10.49;37.05
14838;BME280;7510;59.296;18.106;2022-12-07T01:41:55;100287.44;;;10.29;36.92
14838;BME280;7510;59.296;18.106;2022-12-07T01:44:26;100286.97;;;10.04;37.62
14838;BME280;7510;59.296;18.106;2022-12-07T01:46:57;100334.41;;;9.89;38.38
14838;BME280;7510;59.296;18.106;2022-12-07T01:49:38;100344.03;;;10.52;37.43
14838;BME280;7510;59.296;18.106;2022-12-07T01:52:26;100336.38;;;10.77;36.88
14838;BME280;7510;59.296;18.106;2022-12-07T01:54:55;100341.41;;;10.40;37.44
14838;BME280;7510;59.296;18.106;2022-12-07T01:57:23;100317.69;;;10.42;37.37
14838;BME280;7510;59.296;18.106;2022-12-07T01:59:49;100332.94;;;10.09;38.26
14838;BME280;7510;59.296;18.106;2022-12-07T02:02:49;100337.13;;;10.28;37.77
14838;BME280;7510;59.296;18.106;2022-12-07T02:05:17;100342.75;;;10.71;37.30
14838;BME280;7510;59.296;18.106;2022-12-07T02:07:45;100341.63;;;10.83;37.05
14838;BME280;7510;59.296;18.106;2022-12-07T02:10:17;100330.00;;;10.83;36.82
14838;BME280;7510;59.296;18.106;2022-12-07T02:12:45;100314.59;;;11.00;36.81
14838;BME280;7510;59.296;18.106;2022-12-07T02:15:12;100294.28;;;10.81;37.04
14838;BME280;7510;59.296;18.106;2022-12-07T02:20:27;100315.09;;;10.08;38.48
14838;BME280;7510;59.296;18.106;2022-12-07T02:25:33;100322.78;;;9.15;40.05
14838;BME280;7510;59.296;18.106;2022-12-07T02:30:54;100314.94;;;10.87;37.42
14838;BME280;7510;59.296;18.106;2022-12-07T02:33:28;100307.59;;;10.54;37.94
14838;BME280;7510;59.296;18.106;2022-12-07T02:36:05;100311.06;;;10.22;38.42
14838;BME280;7510;59.296;18.106;2022-12-07T02:41:26;100299.50;;;10.38;38.42
14838;BME280;7510;59.296;18.106;2022-12-07T02:44:12;100282.38;;;10.49;38.09
14838;BME280;7510;59.296;18.106;2022-12-07T02:46:44;100299.50;;;10.38;38.32
14838;BME280;7510;59.296;18.106;2022-12-07T02:49:12;100286.19;;;10.48;37.91
14838;BME280;7510;59.296;18.106;2022-12-07T02:51:42;100284.59;;;10.52;37.74
14838;BME280;7510;59.296;18.106;2022-12-07T02:54:17;100299.31;;;10.28;38.21
14838;BME280;7510;59.296;18.106;2022-12-07T02:57:00;100278.72;;;10.88;37.33
14838;BME280;7510;59.296;18.106;2022-12-07T02:59:50;100286.91;;;10.93;37.32
14838;BME280;7510;59.296;18.106;2022-12-07T03:02:25;100291.28;;;10.33;38.83
14838;BME280;7510;59.296;18.106;2022-12-07T03:07:59;100286.25;;;10.69;38.17
14838;BME280;7510;59.296;18.106;2022-12-07T03:10:54;100277.41;;;11.07;37.74
14838;BME280;7510;59.296;18.106;2022-12-07T03:18:26;100276.41;;;10.80;38.21
14838;BME280;7510;59.296;18.106;2022-12-07T03:20:55;100270.44;;;10.45;38.58
14838;BME280;7510;59.296;18.106;2022-12-07T03:23:23;100281.19;;;10.73;38.35
14838;BME280;7510;59.296;18.106;2022-12-07T03:25:55;100282.19;;;10.83;38.42
14838;BME280;7510;59.296;18.106;2022-12-07T03:28:24;100279.38;;;10.78;38.31
14838;BME280;7510;59.296;18.106;2022-12-07T03:31:05;100235.34;;;10.45;38.25
14838;BME280;7510;59.296;18.106;2022-12-07T03:33:51;100277.25;;;10.97;38.13
14838;BME280;7510;59.296;18.106;2022-12-07T03:36:24;100279.97;;;10.20;39.27
14838;BME280;7510;59.296;18.106;2022-12-07T03:41:41;100282.50;;;9.98;39.36
14838;BME280;7510;59.296;18.106;2022-12-07T03:44:07;100282.19;;;10.67;38.39
14838;BME280;7510;59.296;18.106;2022-12-07T03:54:15;100280.22;;;10.79;38.05
14838;BME280;7510;59.296;18.106;2022-12-07T03:56:44;100261.13;;;10.08;38.65
14838;BME280;7510;59.296;18.106;2022-12-07T03:59:11;100246.94;;;10.29;38.61
14838;BME280;7510;59.296;18.106;2022-12-07T04:01:38;100231.47;;;10.57;37.98
14838;BME280;7510;59.296;18.106;2022-12-07T04:04:06;100262.53;;;10.71;37.91
14838;BME280;7510;59.296;18.106;2022-12-07T04:06:31;100254.16;;;10.89;37.38
14838;BME280;7510;59.296;18.106;2022-12-07T04:08:57;100246.78;;;10.68;37.78
14838;BME280;7510;59.296;18.106;2022-12-07T04:11:22;100222.41;;;10.63;37.46
14838;BME280;7510;59.296;18.106;2022-12-07T04:13:48;100206.84;;;9.93;38.31
14838;BME280;7510;59.296;18.106;2022-12-07T04:16:32;100253.13;;;10.13;38.68
14838;BME280;7510;59.296;18.106;2022-12-07T04:18:58;100234.34;;;10.18;38.35
14838;BME280;7510;59.296;18.106;2022-12-07T04:21:23;100245.56;;;9.99;39.06
14838;BME280;7510;59.296;18.106;2022-12-07T04:23:49;100236.75;;;10.03;38.88
14838;BME280;7510;59.296;18.106;2022-12-07T04:26:14;100244.72;;;9.98;38.95
14838;BME280;7510;59.296;18.106;2022-12-07T04:28:40;100244.97;;;9.97;38.94
14838;BME280;7510;59.296;18.106;2022-12-07T04:31:05;100225.00;;;10.42;38.11
14838;BME280;7510;59.296;18.106;2022-12-07T04:33:31;100244.97;;;10.41;38.20
14838;BME280;7510;59.296;18.106;2022-12-07T04:35:56;100239.91;;;10.28;38.22
14838;BME280;7510;59.296;18.106;2022-12-07T04:38:22;100223.53;;;10.51;37.90
14838;BME280;7510;59.296;18.106;2022-12-07T04:40:47;100197.84;;;10.32;38.16
14838;BME280;7510;59.296;18.106;2022-12-07T04:43:13;100222.47;;;10.52;38.05
14838;BME280;7510;59.296;18.106;2022-12-07T04:45:38;100114.03;;;9.94;38.03
14838;BME280;7510;59.296;18.106;2022-12-07T04:48:04;100216.91;;;10.75;37.64
14838;BME280;7510;59.296;18.106;2022-12-07T04:50:29;100159.41;;;10.25;37.81
14838;BME280;7510;59.296;18.106;2022-12-07T04:52:55;100208.16;;;10.51;38.06
14838;BME280;7510;59.296;18.106;2022-12-07T04:55:20;100148.28;;;9.49;38.68
14838;BME280;7510;59.296;18.106;2022-12-07T04:57:46;100206.69;;;10.44;38.35
14838;BME280;7510;59.296;18.106;2022-12-07T05:00:11;100199.06;;;10.41;38.01
14838;BME280;7510;59.296;18.106;2022-12-07T05:02:37;100195.63;;;10.62;37.73
14838;BME280;7510;59.296;18.106;2022-12-07T05:05:03;100181.31;;;10.61;37.64
14838;BME280;7510;59.296;18.106;2022-12-07T05:07:28;100153.16;;;10.08;38.26
14838;BME280;7510;59.296;18.106;2022-12-07T05:09:53;100209.13;;;8.49;41.68
14838;BME280;7510;59.296;18.106;2022-12-07T05:12:19;100211.94;;;9.78;39.35
14838;BME280;7510;59.296;18.106;2022-12-07T05:14:44;100202.59;;;9.69;39.33
14838;BME280;7510;59.296;18.106;2022-12-07T05:17:10;100088.47;;;9.52;38.76
14838;BME280;7510;59.296;18.106;2022-12-07T05:19:36;100186.03;;;10.05;38.91
14838;BME280;7510;59.296;18.106;2022-12-07T05:22:02;100173.94;;;10.24;38.54
14838;BME280;7510;59.296;18.106;2022-12-07T05:24:27;100184.63;;;9.08;40.64
14838;BME280;7510;59.296;18.106;2022-12-07T05:26:53;100179.94;;;9.03;40.76
14838;BME280;7510;59.296;18.106;2022-12-07T05:29:18;100168.72;;;10.34;38.44
14838;BME280;7510;59.296;18.106;2022-12-07T05:31:44;100163.78;;;10.31;38.38
14838;BME280;7510;59.296;18.106;2022-12-07T05:34:10;100168.38;;;10.14;38.67
14838;BME280;7510;59.296;18.106;2022-12-07T05:36:36;100140.09;;;9.45;39.49
14838;BME280;7510;59.296;18.106;2022-12-07T05:39:02;100171.66;;;10.00;39.12
14838;BME280;7510;59.296;18.106;2022-12-07T05:41:27;100172.63;;;10.10;38.98
14838;BME280;7510;59.296;18.106;2022-12-07T05:44:11;100159.53;;;10.02;39.38
14838;BME280;7510;59.296;18.106;2022-12-07T05:46:37;100158.13;;;9.55;40.02
14838;BME280;7510;59.296;18.106;2022-12-07T05:49:03;100165.41;;;9.99;39.57
14838;BME280;7510;59.296;18.106;2022-12-07T05:51:28;100162.81;;;10.04;39.33
14838;BME280;7510;59.296;18.106;2022-12-07T05:53:54;100165.03;;;9.79;39.70
14838;BME280;7510;59.296;18.106;2022-12-07T05:56:20;100134.41;;;9.57;39.90
14838;BME280;7510;59.296;18.106;2022-12-07T05:58:45;100148.44;;;10.15;38.96
14838;BME280;7510;59.296;18.106;2022-12-07T06:01:29;100160.47;;;9.80;39.53
14838;BME280;7510;59.296;18.106;2022-12-07T06:03:54;100167.81;;;10.12;39.41
14838;BME280;7510;59.296;18.106;2022-12-07T06:06:20;100156.94;;;10.07;39.25
14838;BME280;7510;59.296;18.106;2022-12-07T06:08:45;100161.50;;;10.56;38.35
14838;BME280;7510;59.296;18.106;2022-12-07T06:11:11;100149.56;;;10.03;39.08
14838;BME280;7510;59.296;18.106;2022-12-07T06:13:55;100173.63;;;10.37;38.75
14838;BME280;7510;59.296;18.106;2022-12-07T06:16:20;100172.06;;;10.41;38.62
14838;BME280;7510;59.296;18.106;2022-12-07T06:18:46;100178.69;;;10.01;39.23
14838;BME280;7510;59.296;18.106;2022-12-07T06:21:11;100152.41;;;10.29;38.27
14838;BME280;7510;59.296;18.106;2022-12-07T06:23:37;100175.22;;;10.71;37.94
14838;BME280;7510;59.296;18.106;2022-12-07T06:26:02;100169.00;;;10.87;37.82
14838;BME280;7510;59.296;18.106;2022-12-07T06:28:28;100173.94;;;10.57;38.25
14838;BME280;7510;59.296;18.106;2022-12-07T06:31:01;100176.25;;;10.48;38.18
14838;BME280;7510;59.296;18.106;2022-12-07T06:33:27;100160.03;;;10.16;38.65
14838;BME280;7510;59.296;18.106;2022-12-07T06:35:53;100184.72;;;9.52;39.65
14838;BME280;7510;59.296;18.106;2022-12-07T06:38:19;100145.16;;;10.13;38.58
14838;BME280;7510;59.296;18.106;2022-12-07T06:40:44;100161.03;;;10.10;38.04
14838;BME280;7510;59.296;18.106;2022-12-07T06:43:10;100171.75;;;8.98;40.76
14838;BME280;7510;59.296;18.106;2022-12-07T06:45:35;100114.97;;;9.55;39.06
14838;BME280;7510;59.296;18.106;2022-12-07T06:48:01;100158.38;;;10.64;37.45
14838;BME280;7510;59.296;18.106;2022-12-07T06:50:26;100178.19;;;10.20;38.38
14838;BME280;7510;59.296;18.106;2022-12-07T06:52:52;100159.53;;;10.51;37.62
14838;BME280;7510;59.296;18.106;2022-12-07T06:55:17;100159.56;;;10.35;38.11
14838;BME280;7510;59.296;18.106;2022-12-07T06:57:43;100165.53;;;9.93;38.95
14838;BME280;7510;59.296;18.106;2022-12-07T07:00:10;100192.56;;;10.09;39.03
14838;BME280;7510;59.296;18.106;2022-12-07T07:02:35;100199.19;;;9.74;39.53
14838;BME280;7510;59.296;18.106;2022-12-07T07:05:01;100195.19;;;10.70;37.78
14838;BME280;7510;59.296;18.106;2022-12-07T07:07:27;100122.00;;;10.17;37.92
14838;BME280;7510;59.296;18.106;2022-12-07T07:09:52;100173.22;;;10.45;38.00
14838;BME280;7510;59.296;18.106;2022-12-07T07:12:18;100193.09;;;10.23;38.57
14838;BME280;7510;59.296;18.106;2022-12-07T07:14:43;100203.56;;;10.03;39.28
14838;BME280;7510;59.296;18.106;2022-12-07T07:17:09;100204.13;;;10.21;38.81
14838;BME280;7510;59.296;18.106;2022-12-07T07:19:34;100201.00;;;9.85;39.48
14838;BME280;7510;59.296;18.106;2022-12-07T07:22:00;100207.25;;;9.85;39.37
14838;BME280;7510;59.296;18.106;2022-12-07T07:24:25;100183.91;;;10.40;38.47
14838;BME280;7510;59.296;18.106;2022-12-07T07:26:51;100203.19;;;10.98;37.40
14838;BME280;7510;59.296;18.106;2022-12-07T07:29:16;100211.09;;;10.50;38.11
14838;BME280;7510;59.296;18.106;2022-12-07T07:31:42;100194.50;;;10.58;37.83
14838;BME280;7510;59.296;18.106;2022-12-07T07:34:07;100209.28;;;10.72;37.75
14838;BME280;7510;59.296;18.106;2022-12-07T07:36:36;100178.50;;;10.73;37.48
14838;BME280;7510;59.296;18.106;2022-12-07T07:39:01;100185.38;;;10.15;38.63
14838;BME280;7510;59.296;18.106;2022-12-07T07:41:27;100143.69;;;10.22;37.78
14838;BME280;7510;59.296;18.106;2022-12-07T07:43:53;100180.63;;;10.54;37.48
14838;BME280;7510;59.296;18.106;2022-12-07T07:46:18;100197.97;;;10.09;38.25
14838;BME280;7510;59.296;18.106;2022-12-07T07:48:44;100212.41;;;10.64;37.85
14838;BME280;7510;59.296;18.106;2022-12-07T07:51:09;100201.28;;;10.77;37.24
14838;BME280;7510;59.296;18.106;2022-12-07T07:53:35;100198.78;;;10.92;37.04
14838;BME280;7510;59.296;18.106;2022-12-07T07:56:00;100199.00;;;10.36;38.14
14838;BME280;7510;59.296;18.106;2022-12-07T07:58:27;100201.44;;;10.70;37.31
14838;BME280;7510;59.296;18.106;2022-12-07T08:00:52;100207.84;;;10.48;37.75
14838;BME280;7510;59.296;18.106;2022-12-07T08:03:18;100194.44;;;10.74;37.24
14838;BME280;7510;59.296;18.106;2022-12-07T08:05:44;100192.13;;;10.61;37.51
14838;BME280;7510;59.296;18.106;2022-12-07T08:08:09;100153.78;;;10.64;36.87
14838;BME280;7510;59.296;18.106;2022-12-07T08:10:35;100196.53;;;10.18;37.68
14838;BME280;7510;59.296;18.106;2022-12-07T08:13:00;100203.72;;;10.62;37.30
14838;BME280;7510;59.296;18.106;2022-12-07T08:15:43;100192.28;;;10.71;37.23
14838;BME280;7510;59.296;18.106;2022-12-07T08:18:09;100192.75;;;10.52;37.34
14838;BME280;7510;59.296;18.106;2022-12-07T08:20:36;100177.78;;;10.61;37.13
14838;BME280;7510;59.296;18.106;2022-12-07T08:23:03;100182.31;;;9.67;38.70
14838;BME280;7510;59.296;18.106;2022-12-07T08:25:28;100196.03;;;9.38;39.65
14838;BME280;7510;59.296;18.106;2022-12-07T08:27:54;100195.03;;;9.83;38.95
14838;BME280;7510;59.296;18.106;2022-12-07T08:30:20;100180.81;;;9.59;38.87
14838;BME280;7510;59.296;18.106;2022-12-07T08:32:46;100185.16;;;9.33;39.71
14838;BME280;7510;59.296;18.106;2022-12-07T08:35:12;100186.22;;;10.15;38.18
14838;BME280;7510;59.296;18.106;2022-12-07T08:37:38;100188.91;;;9.32;40.23
14838;BME280;7510;59.296;18.106;2022-12-07T08:40:06;100171.28;;;9.96;38.71
14838;BME280;7510;59.296;18.106;2022-12-07T08:42:32;100189.47;;;8.83;40.75
14838;BME280;7510;59.296;18.106;2022-12-07T08:45:07;100158.72;;;9.46;39.45
14838;BME280;7510;59.296;18.106;2022-12-07T08:47:34;100179.03;;;9.65;39.35
14838;BME280;7510;59.296;18.106;2022-12-07T08:50:02;100177.28;;;10.15;38.75
14838;BME280;7510;59.296;18.106;2022-12-07T08:52:32;100176.97;;;10.11;38.35
14838;BME280;7510;59.296;18.106;2022-12-07T08:54:58;100141.88;;;10.11;37.98
14838;BME280;7510;59.296;18.106;2022-12-07T08:57:27;100133.88;;;9.88;38.40
14838;BME280;7510;59.296;18.106;2022-12-07T08:59:53;100173.56;;;9.60;39.39
14838;BME280;7510;59.296;18.106;2022-12-07T09:02:19;100157.31;;;9.71;38.90
14838;BME280;7510;59.296;18.106;2022-12-07T09:04:44;100161.19;;;10.36;37.80
14838;BME280;7510;59.296;18.106;2022-12-07T09:07:10;100080.50;;;9.90;37.83
14838;BME280;7510;59.296;18.106;2022-12-07T09:09:36;100157.75;;;10.57;37.71
14838;BME280;7510;59.296;18.106;2022-12-07T09:12:01;100144.50;;;10.23;38.24
14838;BME280;7510;59.296;18.106;2022-12-07T09:14:27;100158.66;;;9.85;38.80
14838;BME280;7510;59.296;18.106;2022-12-07T09:16:53;100157.47;;;8.86;41.21
14838;BME280;7510;59.296;18.106;2022-12-07T09:19:18;100152.22;;;9.86;39.17
14838;BME280;7510;59.296;18.106;2022-12-07T09:21:44;100164.16;;;10.18;38.90
14838;BME280;7510;59.296;18.106;2022-12-07T09:24:11;100144.13;;;9.86;39.05
14838;BME280;7510;59.296;18.106;2022-12-07T09:26:37;100164.84;;;10.63;37.74
14838;BME280;7510;59.296;18.106;2022-12-07T09:29:04;100145.22;;;11.31;36.65
14838;BME280;7510;59.296;18.106;2022-12-07T09:31:29;100142.72;;;11.04;37.04
14838;BME280;7510;59.296;18.106;2022-12-07T09:33:56;100142.47;;;11.26;36.98
14838;BME280;7510;59.296;18.106;2022-12-07T09:36:22;100149.88;;;11.15;36.74
14838;BME280;7510;59.296;18.106;2022-12-07T09:38:48;100153.16;;;11.17;36.94
14838;BME280;7510;59.296;18.106;2022-12-07T09:41:16;100124.97;;;11.13;36.46
14838;BME280;7510;59.296;18.106;2022-12-07T09:43:42;100143.84;;;11.50;35.92
14838;BME280;7510;59.296;18.106;2022-12-07T09:46:10;100155.91;;;11.21;36.93
14838;BME280;7510;59.296;18.106;2022-12-07T09:48:38;100157.59;;;11.06;36.90
14838;BME280;7510;59.296;18.106;2022-12-07T09:53:45;100148.75;;;11.11;36.75
14838;BME280;7510;59.296;18.106;2022-12-07T09:56:15;100155.78;;;11.12;36.66
14838;BME280;7510;59.296;18.106;2022-12-07T09:58:42;100150.47;;;11.17;36.79
14838;BME280;7510;59.296;18.106;2022-12-07T10:03:35;100155.59;;;10.59;37.81
14838;BME280;7510;59.296;18.106;2022-12-07T10:06:01;100149.06;;;10.93;37.29
14838;BME280;7510;59.296;18.106;2022-12-07T10:08:27;100153.44;;;9.95;38.59
14838;BME280;7510;59.296;18.106;2022-12-07T10:10:55;100156.03;;;9.90;39.13
14838;BME280;7510;59.296;18.106;2022-12-07T10:13:35;100154.75;;;10.75;37.71
14838;BME280;7510;59.296;18.106;2022-12-07T10:16:01;100158.13;;;10.49;37.99
14838;BME280;7510;59.296;18.106;2022-12-07T10:18:40;100149.91;;;10.06;38.76
14838;BME280;7510;59.296;18.106;2022-12-07T10:21:18;100135.44;;;9.84;38.99
14838;BME280;7510;59.296;18.106;2022-12-07T10:24:14;100125.16;;;10.63;37.53
14838;BME280;7510;59.296;18.106;2022-12-07T10:26:53;100140.66;;;9.74;39.40
14838;BME280;7510;59.296;18.106;2022-12-07T10:29:23;100127.88;;;10.85;37.61
14838;BME280;7510;59.296;18.106;2022-12-07T10:31:59;100114.06;;;10.27;38.25
14838;BME280;7510;59.296;18.106;2022-12-07T10:36:53;100123.66;;;10.94;37.80
14838;BME280;7510;59.296;18.106;2022-12-07T10:39:22;100128.31;;;9.78;39.17
14838;BME280;7510;59.296;18.106;2022-12-07T10:41:59;100121.66;;;11.27;36.90
14838;BME280;7510;59.296;18.106;2022-12-07T10:44:30;100114.41;;;10.14;38.55
14838;BME280;7510;59.296;18.106;2022-12-07T10:52:45;100108.00;;;10.36;38.88
14838;BME280;7510;59.296;18.106;2022-12-07T11:01:05;100061.72;;;11.14;37.00
14838;BME280;7510;59.296;18.106;2022-12-07T11:09:39;100057.78;;;11.47;36.17
14838;BME280;7510;59.296;18.106;2022-12-07T11:12:20;100077.91;;;10.66;38.07
14838;BME280;7510;59.296;18.106;2022-12-07T11:18:06;100072.19;;;11.79;35.83
14838;BME280;7510;59.296;18.106;2022-12-07T11:20:48;100072.59;;;11.66;36.12
14838;BME280;7510;59.296;18.106;2022-12-07T11:26:39;100022.88;;;11.20;36.61
14838;BME280;7510;59.296;18.106;2022-12-07T11:34:36;100017.31;;;9.09;39.86
14838;BME280;7510;59.296;18.106;2022-12-07T11:37:08;100045.78;;;10.48;38.37
14838;BME280;7510;59.296;18.106;2022-12-07T11:39:59;100037.09;;;10.46;38.02
14838;BME280;7510;59.296;18.106;2022-12-07T11:42:30;100046.66;;;9.66;39.66
14838;BME280;7510;59.296;18.106;2022-12-07T11:45:03;100043.31;;;10.09;39.14
14838;BME280;7510;59.296;18.106;2022-12-07T11:56:21;100031.47;;;10.69;37.76
14838;BME280;7510;59.296;18.106;2022-12-07T12:06:39;100019.03;;;10.68;37.82
14838;BME280;7510;59.296;18.106;2022-12-07T12:25:52;99994.69;;;11.16;37.07
14838;BME280;7510;59.296;18.106;2022-12-07T12:33:55;99923.19;;;10.75;37.04
14838;BME280;7510;59.296;18.106;2022-12-07T12:51:52;99988.25;;;12.20;35.48
14838;BME280;7510;59.296;18.106;2022-12-07T12:57:00;99995.53;;;12.15;35.30
14838;BME280;7510;59.296;18.106;2022-12-07T12:59:33;99995.19;;;10.86;37.41
14838;BME280;7510;59.296;18.106;2022-12-07T13:02:45;100002.50;;;10.05;39.32
14838;BME280;7510;59.296;18.106;2022-12-07T13:15:45;99998.19;;;11.69;36.33
14838;BME280;7510;59.296;18.106;2022-12-07T13:21:01;99996.28;;;10.64;37.96
14838;BME280;7510;59.296;18.106;2022-12-07T13:29:14;99971.53;;;10.50;37.76
14838;BME280;7510;59.296;18.106;2022-12-07T13:31:57;99984.97;;;10.24;38.73
14838;BME280;7510;59.296;18.106;2022-12-07T13:34:33;99997.84;;;10.81;37.79
14838;BME280;7510;59.296;18.106;2022-12-07T13:37:01;99998.72;;;9.41;40.42
14838;BME280;7510;59.296;18.106;2022-12-07T13:39:33;99991.31;;;10.77;37.87
14838;BME280;7510;59.296;18.106;2022-12-07T13:42:07;99991.44;;;11.14;36.90
14838;BME280;7510;59.296;18.106;2022-12-07T13:44:40;99975.47;;;11.70;36.19
14838;BME280;7510;59.296;18.106;2022-12-07T13:47:13;99980.38;;;12.14;35.28
14838;BME280;7510;59.296;18.106;2022-12-07T13:49:51;99952.13;;;11.32;36.35
14838;BME280;7510;59.296;18.106;2022-12-07T13:52:24;99980.06;;;12.06;35.38
14838;BME280;7510;59.296;18.106;2022-12-07T13:57:33;99975.19;;;11.66;35.89
14838;BME280;7510;59.296;18.106;2022-12-07T14:00:01;99977.72;;;11.51;36.47
14838;BME280;7510;59.296;18.106;2022-12-07T14:02:33;99970.56;;;11.67;36.18
14838;BME280;7510;59.296;18.106;2022-12-07T14:05:23;99972.50;;;11.40;36.32
14838;BME280;7510;59.296;18.106;2022-12-07T14:07:59;99978.00;;;11.23;36.58
14838;BME280;7510;59.296;18.106;2022-12-07T14:10:32;99983.91;;;11.20;36.63
14838;BME280;7510;59.296;18.106;2022-12-07T14:13:00;99962.47;;;10.40;37.57
14838;BME280;7510;59.296;18.106;2022-12-07T14:15:31;99961.69;;;11.14;36.75
14838;BME280;7510;59.296;18.106;2022-12-07T14:17:58;99978.56;;;10.30;37.85
14838;BME280;7510;59.296;18.106;2022-12-07T14:20:39;99980.31;;;10.41;37.63
14838;BME280;7510;59.296;18.106;2022-12-07T14:23:27;99970.16;;;11.22;36.73
14838;BME280;7510;59.296;18.106;2022-12-07T14:25:53;99975.63;;;9.45;39.14
14838;BME280;7510;59.296;18.106;2022-12-07T14:28:30;99965.22;;;9.69;38.85
14838;BME280;7510;59.296;18.106;2022-12-07T14:30:57;99943.38;;;10.68;36.99
14838;BME280;7510;59.296;18.106;2022-12-07T14:33:24;99969.50;;;10.84;36.65
14838;BME280;7510;59.296;18.106;2022-12-07T14:35:50;99958.44;;;10.21;37.97
14838;BME280;7510;59.296;18.106;2022-12-07T14:38:20;99967.88;;;8.48;41.26
14838;BME280;7510;59.296;18.106;2022-12-07T14:40:46;99962.22;;;8.89;40.23
14838;BME280;7510;59.296;18.106;2022-12-07T14:43:14;99956.94;;;10.09;38.17
14838;BME280;7510;59.296;18.106;2022-12-07T14:45:40;99962.28;;;10.46;37.43
14838;BME280;7510;59.296;18.106;2022-12-07T14:48:09;99941.84;;;9.75;38.47
14838;BME280;7510;59.296;18.106;2022-12-07T14:50:43;99866.25;;;10.08;37.35
14838;BME280;7510;59.296;18.106;2022-12-07T14:53:21;99924.59;;;10.78;36.71
14838;BME280;7510;59.296;18.106;2022-12-07T14:55:50;99890.13;;;10.42;37.16
14838;BME280;7510;59.296;18.106;2022-12-07T14:58:17;99936.00;;;10.37;37.47
14838;BME280;7510;59.296;18.106;2022-12-07T15:00:44;99921.94;;;10.35;37.59
14838;BME280;7510;59.296;18.106;2022-12-07T15:03:10;99929.56;;;10.43;37.30
14838;BME280;7510;59.296;18.106;2022-12-07T15:05:36;99937.69;;;10.43;37.24
14838;BME280;7510;59.296;18.106;2022-12-07T15:08:02;99937.41;;;10.44;37.30
14838;BME280;7510;59.296;18.106;2022-12-07T15:10:31;99928.28;;;10.98;36.46
14838;BME280;7510;59.296;18.106;2022-12-07T15:13:02;99941.94;;;10.39;37.31
14838;BME280;7510;59.296;18.106;2022-12-07T15:15:50;99935.41;;;11.40;35.75
14838;BME280;7510;59.296;18.106;2022-12-07T15:18:17;99935.03;;;10.96;36.44
14838;BME280;7510;59.296;18.106;2022-12-07T15:20:43;99915.09;;;11.33;35.52
14838;BME280;7510;59.296;18.106;2022-12-07T15:23:10;99893.63;;;10.90;35.96
14838;BME280;7510;59.296;18.106;2022-12-07T15:25:36;99921.97;;;10.88;36.20
14838;BME280;7510;59.296;18.106;2022-12-07T15:28:01;99920.75;;;10.74;36.45